SCCI/PUQ METAR and TAF weather

Enter ICAO airport designator
Station Type Date Time Source
SCCI METAR 2019/04/22 18:00 UTC NOAA

SCCI 221800Z 26009KT 240V310 9999 SCT043 OVC080 10/06 Q1009 NOSIG


Station Type Date Time Source
SCCI Decoded METAR 2019/04/22 18:00 UTC NOAA

Punta Arenas, Chile (SCCI) 53-00S 070-51W 33M
Apr 22, 2019 - 02:00 PM EDT / 2019.04.22 1800 UTC
Wind: from the W (260 degrees) at 10 MPH (9 KT) (direction variable):0
Visibility: greater than 7 mile(s):0
Sky conditions: overcast
Temperature: 50 F (10 C)
Dew Point: 42 F (6 C)
Relative Humidity: 76%
Pressure (altimeter): 29.80 in. Hg (1009 hPa)
ob: SCCI 221800Z 26009KT 240V310 9999 SCT043 OVC080 10/06 Q1009 NOSIG
cycle: 18

Station Type Date Time Source
SCCI TAF 2019/04/22 18:03 UTC NOAA

TAF SCCI 221650Z 2218/2318 25015KT 9999 SCT060 TX10/2218Z TN05/2303Z
TEMPO 2218/2221 28015KT 9000 -SHRA FEW022 BKN045
BECMG 2223/2301 26018G28KT
BECMG 2301/2303 26015KT
BECMG 2309/2311 29012KT FEW030

Example: see airport list